sensor_id;sensor_type;location;lat;lon;timestamp;P1;durP1;ratioP1;P2;durP2;ratioP2
22826;SDS011;11580;52.562;13.418;2024-03-29T00:00:35;0.90;;;0.90;;
22826;SDS011;11580;52.562;13.418;2024-03-29T00:03:01;1.37;;;0.97;;
22826;SDS011;11580;52.562;13.418;2024-03-29T00:05:27;0.70;;;0.70;;
22826;SDS011;11580;52.562;13.418;2024-03-29T00:07:53;1.20;;;1.00;;
22826;SDS011;11580;52.562;13.418;2024-03-29T00:10:20;1.00;;;0.90;;
22826;SDS011;11580;52.562;13.418;2024-03-29T00:12:47;1.27;;;0.77;;
22826;SDS011;11580;52.562;13.418;2024-03-29T00:15:13;2.87;;;1.87;;
22826;SDS011;11580;52.562;13.418;2024-03-29T00:17:39;1.70;;;0.87;;
22826;SDS011;11580;52.562;13.418;2024-03-29T00:20:05;1.80;;;1.03;;
22826;SDS011;11580;52.562;13.418;2024-03-29T00:22:32;0.93;;;0.93;;
22826;SDS011;11580;52.562;13.418;2024-03-29T00:24:58;0.70;;;0.70;;
22826;SDS011;11580;52.562;13.418;2024-03-29T00:27:26;2.90;;;1.03;;
22826;SDS011;11580;52.562;13.418;2024-03-29T00:29:53;1.73;;;1.10;;
22826;SDS011;11580;52.562;13.418;2024-03-29T00:32:19;1.00;;;0.90;;
22826;SDS011;11580;52.562;13.418;2024-03-29T00:34:45;1.20;;;0.97;;
22826;SDS011;11580;52.562;13.418;2024-03-29T00:37:11;1.80;;;1.00;;
22826;SDS011;11580;52.562;13.418;2024-03-29T00:39:38;1.40;;;1.10;;
22826;SDS011;11580;52.562;13.418;2024-03-29T00:42:04;0.80;;;0.70;;
22826;SDS011;11580;52.562;13.418;2024-03-29T00:44:31;1.00;;;0.93;;
22826;SDS011;11580;52.562;13.418;2024-03-29T00:46:58;2.07;;;1.20;;
22826;SDS011;11580;52.562;13.418;2024-03-29T00:49:24;1.73;;;0.90;;
22826;SDS011;11580;52.562;13.418;2024-03-29T00:51:50;0.90;;;0.80;;
22826;SDS011;11580;52.562;13.418;2024-03-29T00:54:16;2.00;;;1.00;;
22826;SDS011;11580;52.562;13.418;2024-03-29T00:56:42;1.30;;;0.87;;
22826;SDS011;11580;52.562;13.418;2024-03-29T00:59:08;1.00;;;0.90;;
22826;SDS011;11580;52.562;13.418;2024-03-29T01:01:35;1.93;;;1.07;;
22826;SDS011;11580;52.562;13.418;2024-03-29T01:04:01;0.80;;;0.80;;
22826;SDS011;11580;52.562;13.418;2024-03-29T01:06:28;0.70;;;0.70;;
22826;SDS011;11580;52.562;13.418;2024-03-29T01:08:54;1.00;;;0.80;;
22826;SDS011;11580;52.562;13.418;2024-03-29T01:11:20;0.77;;;0.77;;
22826;SDS011;11580;52.562;13.418;2024-03-29T01:13:46;1.10;;;0.90;;
22826;SDS011;11580;52.562;13.418;2024-03-29T01:16:12;2.00;;;0.87;;
22826;SDS011;11580;52.562;13.418;2024-03-29T01:18:39;2.80;;;1.20;;
22826;SDS011;11580;52.562;13.418;2024-03-29T01:21:05;1.00;;;1.00;;
22826;SDS011;11580;52.562;13.418;2024-03-29T01:23:31;1.80;;;0.90;;
22826;SDS011;11580;52.562;13.418;2024-03-29T01:25:57;1.43;;;1.13;;
22826;SDS011;11580;52.562;13.418;2024-03-29T01:28:23;1.50;;;1.23;;
22826;SDS011;11580;52.562;13.418;2024-03-29T01:30:53;0.97;;;0.93;;
22826;SDS011;11580;52.562;13.418;2024-03-29T01:33:19;1.17;;;1.10;;
22826;SDS011;11580;52.562;13.418;2024-03-29T01:35:47;1.30;;;1.20;;
22826;SDS011;11580;52.562;13.418;2024-03-29T01:38:14;1.53;;;1.00;;
22826;SDS011;11580;52.562;13.418;2024-03-29T01:40:40;1.30;;;1.20;;
22826;SDS011;11580;52.562;13.418;2024-03-29T01:43:06;1.10;;;1.07;;
22826;SDS011;11580;52.562;13.418;2024-03-29T01:45:34;1.30;;;1.20;;
22826;SDS011;11580;52.562;13.418;2024-03-29T01:48:04;0.90;;;0.90;;
22826;SDS011;11580;52.562;13.418;2024-03-29T01:50:32;1.40;;;1.30;;
22826;SDS011;11580;52.562;13.418;2024-03-29T01:53:02;1.13;;;1.03;;
22826;SDS011;11580;52.562;13.418;2024-03-29T01:55:31;1.30;;;1.20;;
22826;SDS011;11580;52.562;13.418;2024-03-29T01:57:59;1.63;;;1.00;;
22826;SDS011;11580;52.562;13.418;2024-03-29T02:00:27;1.40;;;1.30;;
22826;SDS011;11580;52.562;13.418;2024-03-29T02:03:00;3.43;;;1.63;;
22826;SDS011;11580;52.562;13.418;2024-03-29T02:05:29;1.83;;;1.20;;
22826;SDS011;11580;52.562;13.418;2024-03-29T02:07:57;1.53;;;1.40;;
22826;SDS011;11580;52.562;13.418;2024-03-29T02:10:26;1.50;;;1.40;;
22826;SDS011;11580;52.562;13.418;2024-03-29T02:12:53;1.70;;;1.53;;
22826;SDS011;11580;52.562;13.418;2024-03-29T02:15:20;1.83;;;1.60;;
22826;SDS011;11580;52.562;13.418;2024-03-29T02:17:47;1.77;;;1.67;;
22826;SDS011;11580;52.562;13.418;2024-03-29T02:20:16;1.53;;;1.43;;
22826;SDS011;11580;52.562;13.418;2024-03-29T02:22:44;1.40;;;1.30;;
22826;SDS011;11580;52.562;13.418;2024-03-29T02:25:21;1.30;;;1.30;;
22826;SDS011;11580;52.562;13.418;2024-03-29T02:27:48;1.40;;;1.30;;
22826;SDS011;11580;52.562;13.418;2024-03-29T02:33:39;1.70;;;1.60;;
22826;SDS011;11580;52.562;13.418;2024-03-29T02:36:06;2.07;;;1.63;;
22826;SDS011;11580;52.562;13.418;2024-03-29T02:38:34;2.03;;;1.80;;
22826;SDS011;11580;52.562;13.418;2024-03-29T02:41:02;1.30;;;1.20;;
22826;SDS011;11580;52.562;13.418;2024-03-29T02:43:30;1.50;;;1.40;;
22826;SDS011;11580;52.562;13.418;2024-03-29T02:45:56;1.83;;;1.20;;
22826;SDS011;11580;52.562;13.418;2024-03-29T02:48:23;1.87;;;1.60;;
22826;SDS011;11580;52.562;13.418;2024-03-29T02:50:49;2.33;;;1.90;;
22826;SDS011;11580;52.562;13.418;2024-03-29T02:53:16;2.90;;;1.63;;
22826;SDS011;11580;52.562;13.418;2024-03-29T02:55:43;1.70;;;1.60;;
22826;SDS011;11580;52.562;13.418;2024-03-29T02:58:10;1.87;;;1.77;;
22826;SDS011;11580;52.562;13.418;2024-03-29T03:00:37;1.70;;;1.60;;
22826;SDS011;11580;52.562;13.418;2024-03-29T03:03:03;1.83;;;1.73;;
22826;SDS011;11580;52.562;13.418;2024-03-29T03:05:30;3.77;;;2.33;;
22826;SDS011;11580;52.562;13.418;2024-03-29T03:07:57;1.70;;;1.53;;
22826;SDS011;11580;52.562;13.418;2024-03-29T03:10:45;2.17;;;1.93;;
22826;SDS011;11580;52.562;13.418;2024-03-29T03:13:29;2.00;;;1.80;;
22826;SDS011;11580;52.562;13.418;2024-03-29T03:15:56;1.93;;;1.73;;
22826;SDS011;11580;52.562;13.418;2024-03-29T03:18:23;3.20;;;1.70;;
22826;SDS011;11580;52.562;13.418;2024-03-29T03:20:51;1.60;;;1.50;;
22826;SDS011;11580;52.562;13.418;2024-03-29T03:23:17;2.10;;;1.90;;
22826;SDS011;11580;52.562;13.418;2024-03-29T03:25:44;2.10;;;1.90;;
22826;SDS011;11580;52.562;13.418;2024-03-29T03:28:10;2.40;;;2.20;;
22826;SDS011;11580;52.562;13.418;2024-03-29T03:30:40;2.40;;;1.67;;
22826;SDS011;11580;52.562;13.418;2024-03-29T03:33:06;2.00;;;1.80;;
22826;SDS011;11580;52.562;13.418;2024-03-29T03:35:33;2.40;;;2.07;;
22826;SDS011;11580;52.562;13.418;2024-03-29T03:37:59;2.10;;;2.00;;
22826;SDS011;11580;52.562;13.418;2024-03-29T03:40:26;2.00;;;1.80;;
22826;SDS011;11580;52.562;13.418;2024-03-29T03:42:52;1.87;;;1.67;;
22826;SDS011;11580;52.562;13.418;2024-03-29T03:45:19;2.13;;;1.90;;
22826;SDS011;11580;52.562;13.418;2024-03-29T03:47:46;1.70;;;1.60;;
22826;SDS011;11580;52.562;13.418;2024-03-29T03:50:14;2.20;;;2.00;;
22826;SDS011;11580;52.562;13.418;2024-03-29T03:52:40;2.30;;;2.20;;
22826;SDS011;11580;52.562;13.418;2024-03-29T03:55:07;2.50;;;2.30;;
22826;SDS011;11580;52.562;13.418;2024-03-29T03:57:33;2.37;;;1.80;;
22826;SDS011;11580;52.562;13.418;2024-03-29T04:00:00;3.90;;;1.97;;
22826;SDS011;11580;52.562;13.418;2024-03-29T04:02:37;2.20;;;2.00;;
22826;SDS011;11580;52.562;13.418;2024-03-29T04:05:06;2.43;;;2.20;;
22826;SDS011;11580;52.562;13.418;2024-03-29T04:07:32;2.13;;;1.93;;
22826;SDS011;11580;52.562;13.418;2024-03-29T04:09:59;2.50;;;2.30;;
22826;SDS011;11580;52.562;13.418;2024-03-29T04:12:25;2.33;;;2.23;;
22826;SDS011;11580;52.562;13.418;2024-03-29T04:14:52;2.13;;;1.93;;
22826;SDS011;11580;52.562;13.418;2024-03-29T04:17:18;4.37;;;1.90;;
22826;SDS011;11580;52.562;13.418;2024-03-29T04:19:45;2.90;;;2.60;;
22826;SDS011;11580;52.562;13.418;2024-03-29T04:22:12;1.70;;;1.53;;
22826;SDS011;11580;52.562;13.418;2024-03-29T04:24:39;2.13;;;2.00;;
22826;SDS011;11580;52.562;13.418;2024-03-29T04:27:05;1.90;;;1.80;;
22826;SDS011;11580;52.562;13.418;2024-03-29T04:29:32;2.40;;;2.20;;
22826;SDS011;11580;52.562;13.418;2024-03-29T04:31:58;2.10;;;1.90;;
22826;SDS011;11580;52.562;13.418;2024-03-29T04:34:25;1.80;;;1.70;;
22826;SDS011;11580;52.562;13.418;2024-03-29T04:36:51;1.87;;;1.77;;
22826;SDS011;11580;52.562;13.418;2024-03-29T04:39:20;1.63;;;1.50;;
22826;SDS011;11580;52.562;13.418;2024-03-29T04:41:47;1.73;;;1.63;;
22826;SDS011;11580;52.562;13.418;2024-03-29T04:44:22;1.80;;;1.60;;
22826;SDS011;11580;52.562;13.418;2024-03-29T04:46:50;2.20;;;1.73;;
22826;SDS011;11580;52.562;13.418;2024-03-29T04:49:18;1.83;;;1.47;;
22826;SDS011;11580;52.562;13.418;2024-03-29T04:51:55;2.10;;;1.50;;
22826;SDS011;11580;52.562;13.418;2024-03-29T04:54:23;1.63;;;1.53;;
22826;SDS011;11580;52.562;13.418;2024-03-29T04:56:50;1.87;;;1.43;;
22826;SDS011;11580;52.562;13.418;2024-03-29T04:59:18;1.73;;;1.63;;
22826;SDS011;11580;52.562;13.418;2024-03-29T05:01:46;1.70;;;1.60;;
22826;SDS011;11580;52.562;13.418;2024-03-29T05:04:15;2.40;;;2.20;;
22826;SDS011;11580;52.562;13.418;2024-03-29T05:06:50;1.43;;;1.30;;
22826;SDS011;11580;52.562;13.418;2024-03-29T05:09:17;3.83;;;1.57;;
22826;SDS011;11580;52.562;13.418;2024-03-29T05:11:45;2.00;;;1.73;;
22826;SDS011;11580;52.562;13.418;2024-03-29T05:14:12;1.40;;;1.30;;
22826;SDS011;11580;52.562;13.418;2024-03-29T05:16:41;1.50;;;1.40;;
22826;SDS011;11580;52.562;13.418;2024-03-29T05:19:08;1.90;;;1.80;;
22826;SDS011;11580;52.562;13.418;2024-03-29T05:21:35;1.50;;;1.40;;
22826;SDS011;11580;52.562;13.418;2024-03-29T05:24:02;2.30;;;1.50;;
22826;SDS011;11580;52.562;13.418;2024-03-29T05:26:30;1.83;;;1.40;;
22826;SDS011;11580;52.562;13.418;2024-03-29T05:28:58;1.70;;;1.60;;
22826;SDS011;11580;52.562;13.418;2024-03-29T05:31:25;1.60;;;1.50;;
22826;SDS011;11580;52.562;13.418;2024-03-29T05:33:53;1.60;;;1.50;;
22826;SDS011;11580;52.562;13.418;2024-03-29T05:36:20;1.60;;;1.43;;
22826;SDS011;11580;52.562;13.418;2024-03-29T05:38:48;2.10;;;1.67;;
22826;SDS011;11580;52.562;13.418;2024-03-29T05:41:14;1.80;;;1.60;;
22826;SDS011;11580;52.562;13.418;2024-03-29T05:43:41;1.30;;;1.20;;
22826;SDS011;11580;52.562;13.418;2024-03-29T05:46:10;3.40;;;1.40;;
22826;SDS011;11580;52.562;13.418;2024-03-29T05:48:37;1.43;;;1.33;;
22826;SDS011;11580;52.562;13.418;2024-03-29T05:51:04;1.50;;;1.40;;
22826;SDS011;11580;52.562;13.418;2024-03-29T05:53:31;1.53;;;1.37;;
22826;SDS011;11580;52.562;13.418;2024-03-29T05:55:58;2.50;;;1.63;;
22826;SDS011;11580;52.562;13.418;2024-03-29T05:58:25;1.93;;;1.30;;
22826;SDS011;11580;52.562;13.418;2024-03-29T06:00:52;2.30;;;1.67;;
22826;SDS011;11580;52.562;13.418;2024-03-29T06:03:20;1.30;;;1.17;;
22826;SDS011;11580;52.562;13.418;2024-03-29T06:05:47;1.30;;;1.20;;
22826;SDS011;11580;52.562;13.418;2024-03-29T06:08:14;1.40;;;1.30;;
22826;SDS011;11580;52.562;13.418;2024-03-29T06:10:41;1.50;;;1.30;;
22826;SDS011;11580;52.562;13.418;2024-03-29T06:13:08;6.03;;;1.30;;
22826;SDS011;11580;52.562;13.418;2024-03-29T06:15:52;1.47;;;1.37;;
22826;SDS011;11580;52.562;13.418;2024-03-29T06:18:38;1.67;;;1.20;;
22826;SDS011;11580;52.562;13.418;2024-03-29T06:21:05;1.60;;;1.47;;
22826;SDS011;11580;52.562;13.418;2024-03-29T06:23:33;1.70;;;1.60;;
22826;SDS011;11580;52.562;13.418;2024-03-29T06:26:00;1.40;;;1.30;;
22826;SDS011;11580;52.562;13.418;2024-03-29T06:28:27;1.30;;;1.20;;
22826;SDS011;11580;52.562;13.418;2024-03-29T06:30:54;1.33;;;1.23;;
22826;SDS011;11580;52.562;13.418;2024-03-29T06:33:21;1.73;;;1.37;;
22826;SDS011;11580;52.562;13.418;2024-03-29T06:35:54;1.83;;;1.40;;
22826;SDS011;11580;52.562;13.418;2024-03-29T06:38:21;1.47;;;1.27;;
22826;SDS011;11580;52.562;13.418;2024-03-29T06:40:48;1.37;;;1.27;;
22826;SDS011;11580;52.562;13.418;2024-03-29T06:43:15;2.47;;;1.20;;
22826;SDS011;11580;52.562;13.418;2024-03-29T06:45:42;1.40;;;1.30;;
22826;SDS011;11580;52.562;13.418;2024-03-29T06:48:09;1.67;;;1.57;;
22826;SDS011;11580;52.562;13.418;2024-03-29T06:50:37;1.77;;;1.30;;
22826;SDS011;11580;52.562;13.418;2024-03-29T06:53:06;1.40;;;1.30;;
22826;SDS011;11580;52.562;13.418;2024-03-29T06:55:34;2.60;;;1.40;;
22826;SDS011;11580;52.562;13.418;2024-03-29T06:58:02;1.33;;;1.20;;
22826;SDS011;11580;52.562;13.418;2024-03-29T07:00:29;1.50;;;1.40;;
22826;SDS011;11580;52.562;13.418;2024-03-29T07:02:56;2.60;;;1.50;;
22826;SDS011;11580;52.562;13.418;2024-03-29T07:05:24;1.73;;;1.60;;
22826;SDS011;11580;52.562;13.418;2024-03-29T07:07:51;1.83;;;1.40;;
22826;SDS011;11580;52.562;13.418;2024-03-29T07:10:20;2.13;;;1.30;;
22826;SDS011;11580;52.562;13.418;2024-03-29T07:12:47;1.10;;;1.00;;
22826;SDS011;11580;52.562;13.418;2024-03-29T07:15:14;1.93;;;1.40;;
22826;SDS011;11580;52.562;13.418;2024-03-29T07:17:41;2.07;;;1.20;;
22826;SDS011;11580;52.562;13.418;2024-03-29T07:20:09;2.13;;;1.30;;
22826;SDS011;11580;52.562;13.418;2024-03-29T07:22:37;1.87;;;1.20;;
22826;SDS011;11580;52.562;13.418;2024-03-29T07:25:04;2.43;;;1.60;;
22826;SDS011;11580;52.562;13.418;2024-03-29T07:27:33;2.13;;;1.20;;
22826;SDS011;11580;52.562;13.418;2024-03-29T07:30:00;1.20;;;1.13;;
22826;SDS011;11580;52.562;13.418;2024-03-29T07:32:29;1.50;;;1.27;;
22826;SDS011;11580;52.562;13.418;2024-03-29T07:34:56;1.73;;;1.20;;
22826;SDS011;11580;52.562;13.418;2024-03-29T07:37:24;1.23;;;1.13;;
22826;SDS011;11580;52.562;13.418;2024-03-29T07:39:51;1.50;;;0.90;;
22826;SDS011;11580;52.562;13.418;2024-03-29T07:42:18;1.90;;;1.20;;
22826;SDS011;11580;52.562;13.418;2024-03-29T07:44:47;1.87;;;1.37;;
22826;SDS011;11580;52.562;13.418;2024-03-29T07:47:14;1.40;;;1.30;;
22826;SDS011;11580;52.562;13.418;2024-03-29T07:49:41;2.23;;;1.60;;
22826;SDS011;11580;52.562;13.418;2024-03-29T07:52:08;3.13;;;1.97;;
22826;SDS011;11580;52.562;13.418;2024-03-29T07:54:37;1.83;;;1.43;;
22826;SDS011;11580;52.562;13.418;2024-03-29T07:57:04;3.47;;;1.13;;
22826;SDS011;11580;52.562;13.418;2024-03-29T07:59:33;3.73;;;1.50;;
22826;SDS011;11580;52.562;13.418;2024-03-29T08:02:02;3.40;;;1.70;;
22826;SDS011;11580;52.562;13.418;2024-03-29T08:04:29;1.20;;;1.10;;
22826;SDS011;11580;52.562;13.418;2024-03-29T08:06:56;3.50;;;1.40;;
22826;SDS011;11580;52.562;13.418;2024-03-29T08:09:22;1.97;;;1.20;;
22826;SDS011;11580;52.562;13.418;2024-03-29T08:11:49;1.20;;;1.00;;
22826;SDS011;11580;52.562;13.418;2024-03-29T08:14:16;2.77;;;1.30;;
22826;SDS011;11580;52.562;13.418;2024-03-29T08:16:43;1.67;;;1.10;;
22826;SDS011;11580;52.562;13.418;2024-03-29T08:19:11;3.10;;;1.73;;
22826;SDS011;11580;52.562;13.418;2024-03-29T08:21:38;1.27;;;1.17;;
22826;SDS011;11580;52.562;13.418;2024-03-29T08:24:05;2.17;;;1.60;;
22826;SDS011;11580;52.562;13.418;2024-03-29T08:26:33;1.90;;;1.20;;
22826;SDS011;11580;52.562;13.418;2024-03-29T08:29:00;1.57;;;1.03;;
22826;SDS011;11580;52.562;13.418;2024-03-29T08:31:27;2.40;;;1.13;;
22826;SDS011;11580;52.562;13.418;2024-03-29T08:33:54;1.87;;;1.23;;
22826;SDS011;11580;52.562;13.418;2024-03-29T08:36:22;1.60;;;1.23;;
22826;SDS011;11580;52.562;13.418;2024-03-29T08:38:49;1.83;;;1.63;;
22826;SDS011;11580;52.562;13.418;2024-03-29T08:41:16;1.43;;;1.20;;
22826;SDS011;11580;52.562;13.418;2024-03-29T08:43:43;2.47;;;1.30;;
22826;SDS011;11580;52.562;13.418;2024-03-29T08:46:11;2.37;;;1.90;;
22826;SDS011;11580;52.562;13.418;2024-03-29T08:48:38;2.77;;;1.53;;
22826;SDS011;11580;52.562;13.418;2024-03-29T08:51:08;1.30;;;1.20;;
22826;SDS011;11580;52.562;13.418;2024-03-29T08:53:36;1.60;;;1.50;;
22826;SDS011;11580;52.562;13.418;2024-03-29T08:56:04;2.77;;;1.90;;
22826;SDS011;11580;52.562;13.418;2024-03-29T08:58:31;2.10;;;1.70;;
22826;SDS011;11580;52.562;13.418;2024-03-29T09:00:58;1.50;;;1.40;;
22826;SDS011;11580;52.562;13.418;2024-03-29T09:03:29;2.00;;;1.80;;
22826;SDS011;11580;52.562;13.418;2024-03-29T09:05:56;1.63;;;1.50;;
22826;SDS011;11580;52.562;13.418;2024-03-29T09:08:23;2.00;;;1.80;;
22826;SDS011;11580;52.562;13.418;2024-03-29T09:10:52;2.60;;;1.33;;
22826;SDS011;11580;52.562;13.418;2024-03-29T09:13:18;2.57;;;1.80;;
22826;SDS011;11580;52.562;13.418;2024-03-29T09:15:45;1.47;;;1.37;;
22826;SDS011;11580;52.562;13.418;2024-03-29T09:18:14;1.73;;;1.40;;
22826;SDS011;11580;52.562;13.418;2024-03-29T09:20:55;1.80;;;1.40;;
22826;SDS011;11580;52.562;13.418;2024-03-29T09:23:24;1.60;;;1.40;;
22826;SDS011;11580;52.562;13.418;2024-03-29T09:25:54;1.67;;;1.57;;
22826;SDS011;11580;52.562;13.418;2024-03-29T09:28:21;2.00;;;1.80;;
22826;SDS011;11580;52.562;13.418;2024-03-29T09:30:48;1.70;;;1.60;;
22826;SDS011;11580;52.562;13.418;2024-03-29T09:33:16;1.70;;;1.60;;
22826;SDS011;11580;52.562;13.418;2024-03-29T09:35:43;2.37;;;1.87;;
22826;SDS011;11580;52.562;13.418;2024-03-29T09:38:10;1.83;;;1.40;;
22826;SDS011;11580;52.562;13.418;2024-03-29T09:40:37;2.13;;;1.83;;
22826;SDS011;11580;52.562;13.418;2024-03-29T09:43:05;1.53;;;1.37;;
22826;SDS011;11580;52.562;13.418;2024-03-29T09:45:36;1.60;;;1.50;;
22826;SDS011;11580;52.562;13.418;2024-03-29T09:48:04;1.67;;;1.30;;
22826;SDS011;11580;52.562;13.418;2024-03-29T09:50:34;1.60;;;1.50;;
22826;SDS011;11580;52.562;13.418;2024-03-29T09:53:02;1.50;;;1.20;;
22826;SDS011;11580;52.562;13.418;2024-03-29T09:55:31;1.63;;;1.40;;
22826;SDS011;11580;52.562;13.418;2024-03-29T09:57:58;3.43;;;1.63;;
22826;SDS011;11580;52.562;13.418;2024-03-29T10:00:26;1.50;;;1.40;;
22826;SDS011;11580;52.562;13.418;2024-03-29T10:02:55;1.30;;;1.20;;
22826;SDS011;11580;52.562;13.418;2024-03-29T10:05:23;1.13;;;0.90;;
22826;SDS011;11580;52.562;13.418;2024-03-29T10:07:52;2.70;;;1.70;;
22826;SDS011;11580;52.562;13.418;2024-03-29T10:10:21;1.77;;;1.00;;
22826;SDS011;11580;52.562;13.418;2024-03-29T10:12:48;1.53;;;1.23;;
22826;SDS011;11580;52.562;13.418;2024-03-29T10:15:15;1.63;;;1.40;;
22826;SDS011;11580;52.562;13.418;2024-03-29T10:17:46;1.33;;;1.00;;
22826;SDS011;11580;52.562;13.418;2024-03-29T10:20:15;1.77;;;1.30;;
22826;SDS011;11580;52.562;13.418;2024-03-29T10:22:43;1.97;;;1.13;;
22826;SDS011;11580;52.562;13.418;2024-03-29T10:25:12;1.70;;;1.20;;
22826;SDS011;11580;52.562;13.418;2024-03-29T10:27:40;1.57;;;1.20;;
22826;SDS011;11580;52.562;13.418;2024-03-29T10:30:08;1.77;;;1.20;;
22826;SDS011;11580;52.562;13.418;2024-03-29T10:32:41;1.40;;;0.90;;
22826;SDS011;11580;52.562;13.418;2024-03-29T10:35:10;2.13;;;1.30;;
22826;SDS011;11580;52.562;13.418;2024-03-29T10:37:37;1.23;;;1.13;;
22826;SDS011;11580;52.562;13.418;2024-03-29T10:40:06;1.73;;;1.30;;
22826;SDS011;11580;52.562;13.418;2024-03-29T10:42:36;1.20;;;1.10;;
22826;SDS011;11580;52.562;13.418;2024-03-29T10:45:04;1.03;;;0.83;;
22826;SDS011;11580;52.562;13.418;2024-03-29T10:47:33;1.17;;;1.07;;
22826;SDS011;11580;52.562;13.418;2024-03-29T10:50:00;1.50;;;1.33;;
22826;SDS011;11580;52.562;13.418;2024-03-29T10:52:31;1.43;;;1.30;;
22826;SDS011;11580;52.562;13.418;2024-03-29T10:55:00;1.57;;;1.30;;
22826;SDS011;11580;52.562;13.418;2024-03-29T10:57:28;1.10;;;1.00;;
22826;SDS011;11580;52.562;13.418;2024-03-29T11:00:00;1.63;;;1.53;;
22826;SDS011;11580;52.562;13.418;2024-03-29T11:02:35;2.00;;;1.30;;
22826;SDS011;11580;52.562;13.418;2024-03-29T11:05:14;2.33;;;1.37;;
22826;SDS011;11580;52.562;13.418;2024-03-29T11:07:44;1.30;;;1.00;;
22826;SDS011;11580;52.562;13.418;2024-03-29T11:10:13;1.30;;;1.20;;
22826;SDS011;11580;52.562;13.418;2024-03-29T11:12:50;1.63;;;1.10;;
22826;SDS011;11580;52.562;13.418;2024-03-29T11:15:40;1.30;;;1.20;;
22826;SDS011;11580;52.562;13.418;2024-03-29T11:18:10;1.47;;;1.00;;
22826;SDS011;11580;52.562;13.418;2024-03-29T11:20:39;1.10;;;1.00;;
22826;SDS011;11580;52.562;13.418;2024-03-29T11:23:11;1.63;;;1.30;;
22826;SDS011;11580;52.562;13.418;2024-03-29T11:25:41;1.93;;;1.30;;
22826;SDS011;11580;52.562;13.418;2024-03-29T11:28:11;1.70;;;1.27;;
22826;SDS011;11580;52.562;13.418;2024-03-29T11:30:41;1.20;;;1.10;;
22826;SDS011;11580;52.562;13.418;2024-03-29T11:33:28;2.40;;;1.30;;
22826;SDS011;11580;52.562;13.418;2024-03-29T11:35:57;1.03;;;1.03;;
22826;SDS011;11580;52.562;13.418;2024-03-29T11:38:31;2.07;;;1.20;;
22826;SDS011;11580;52.562;13.418;2024-03-29T11:41:04;2.07;;;1.30;;
22826;SDS011;11580;52.562;13.418;2024-03-29T11:43:33;1.87;;;1.00;;
22826;SDS011;11580;52.562;13.418;2024-03-29T11:46:02;1.00;;;0.97;;
22826;SDS011;11580;52.562;13.418;2024-03-29T11:48:32;2.03;;;1.27;;
22826;SDS011;11580;52.562;13.418;2024-03-29T11:51:00;1.50;;;1.10;;
22826;SDS011;11580;52.562;13.418;2024-03-29T11:53:29;1.03;;;0.93;;
22826;SDS011;11580;52.562;13.418;2024-03-29T11:55:58;1.47;;;1.30;;
22826;SDS011;11580;52.562;13.418;2024-03-29T11:58:27;1.20;;;1.10;;
22826;SDS011;11580;52.562;13.418;2024-03-29T12:00:55;1.53;;;1.43;;
22826;SDS011;11580;52.562;13.418;2024-03-29T12:03:24;1.70;;;1.30;;
22826;SDS011;11580;52.562;13.418;2024-03-29T12:05:53;1.30;;;1.20;;
22826;SDS011;11580;52.562;13.418;2024-03-29T12:08:23;1.50;;;1.20;;
22826;SDS011;11580;52.562;13.418;2024-03-29T12:10:52;1.30;;;1.20;;
22826;SDS011;11580;52.562;13.418;2024-03-29T12:13:19;1.00;;;0.90;;
22826;SDS011;11580;52.562;13.418;2024-03-29T12:15:46;1.20;;;1.10;;
22826;SDS011;11580;52.562;13.418;2024-03-29T12:18:13;0.90;;;0.80;;
22826;SDS011;11580;52.562;13.418;2024-03-29T12:20:41;1.27;;;1.00;;
22826;SDS011;11580;52.562;13.418;2024-03-29T12:23:11;2.40;;;1.20;;
22826;SDS011;11580;52.562;13.418;2024-03-29T12:25:39;1.33;;;1.23;;
22826;SDS011;11580;52.562;13.418;2024-03-29T12:28:08;1.27;;;1.17;;
22826;SDS011;11580;52.562;13.418;2024-03-29T12:30:37;1.27;;;1.17;;
22826;SDS011;11580;52.562;13.418;2024-03-29T12:33:07;1.27;;;1.17;;
22826;SDS011;11580;52.562;13.418;2024-03-29T12:35:39;1.13;;;1.03;;
22826;SDS011;11580;52.562;13.418;2024-03-29T12:38:10;1.27;;;1.17;;
22826;SDS011;11580;52.562;13.418;2024-03-29T12:40:38;1.20;;;1.10;;
22826;SDS011;11580;52.562;13.418;2024-03-29T12:43:10;1.20;;;1.10;;
22826;SDS011;11580;52.562;13.418;2024-03-29T12:45:38;1.10;;;1.00;;
22826;SDS011;11580;52.562;13.418;2024-03-29T12:48:09;1.30;;;1.20;;
22826;SDS011;11580;52.562;13.418;2024-03-29T12:50:39;3.40;;;1.50;;
22826;SDS011;11580;52.562;13.418;2024-03-29T12:53:08;1.53;;;1.43;;
22826;SDS011;11580;52.562;13.418;2024-03-29T12:55:36;2.57;;;1.20;;
22826;SDS011;11580;52.562;13.418;2024-03-29T12:58:07;1.77;;;1.30;;
22826;SDS011;11580;52.562;13.418;2024-03-29T13:00:36;1.50;;;1.40;;
22826;SDS011;11580;52.562;13.418;2024-03-29T13:03:04;1.53;;;1.43;;
22826;SDS011;11580;52.562;13.418;2024-03-29T13:05:31;1.63;;;1.30;;
22826;SDS011;11580;52.562;13.418;2024-03-29T13:08:00;1.70;;;1.30;;
22826;SDS011;11580;52.562;13.418;2024-03-29T13:10:28;2.03;;;1.27;;
22826;SDS011;11580;52.562;13.418;2024-03-29T13:12:55;1.30;;;1.13;;
22826;SDS011;11580;52.562;13.418;2024-03-29T13:15:24;1.90;;;1.30;;
22826;SDS011;11580;52.562;13.418;2024-03-29T13:17:54;1.40;;;1.30;;
22826;SDS011;11580;52.562;13.418;2024-03-29T13:20:23;1.27;;;1.17;;
22826;SDS011;11580;52.562;13.418;2024-03-29T13:22:50;1.10;;;0.97;;
22826;SDS011;11580;52.562;13.418;2024-03-29T13:25:19;1.30;;;1.20;;
22826;SDS011;11580;52.562;13.418;2024-03-29T13:27:48;1.50;;;1.40;;
22826;SDS011;11580;52.562;13.418;2024-03-29T13:30:18;1.70;;;1.30;;
22826;SDS011;11580;52.562;13.418;2024-03-29T13:32:49;1.30;;;1.20;;
22826;SDS011;11580;52.562;13.418;2024-03-29T13:35:16;1.13;;;1.00;;
22826;SDS011;11580;52.562;13.418;2024-03-29T13:37:46;1.23;;;1.00;;
22826;SDS011;11580;52.562;13.418;2024-03-29T13:40:15;1.30;;;1.20;;
22826;SDS011;11580;52.562;13.418;2024-03-29T13:42:43;1.40;;;1.20;;
22826;SDS011;11580;52.562;13.418;2024-03-29T13:45:11;2.40;;;1.47;;
22826;SDS011;11580;52.562;13.418;2024-03-29T13:47:40;2.10;;;1.47;;
22826;SDS011;11580;52.562;13.418;2024-03-29T13:50:12;2.30;;;1.57;;
22826;SDS011;11580;52.562;13.418;2024-03-29T13:52:40;1.57;;;1.00;;
22826;SDS011;11580;52.562;13.418;2024-03-29T13:55:08;1.33;;;1.23;;
22826;SDS011;11580;52.562;13.418;2024-03-29T13:57:35;1.10;;;1.03;;
22826;SDS011;11580;52.562;13.418;2024-03-29T14:00:03;1.80;;;1.17;;
22826;SDS011;11580;52.562;13.418;2024-03-29T14:02:32;1.30;;;1.10;;
22826;SDS011;11580;52.562;13.418;2024-03-29T14:04:59;1.43;;;1.13;;
22826;SDS011;11580;52.562;13.418;2024-03-29T14:07:28;1.70;;;1.13;;
22826;SDS011;11580;52.562;13.418;2024-03-29T14:09:55;1.20;;;1.07;;
22826;SDS011;11580;52.562;13.418;2024-03-29T14:12:23;1.30;;;1.13;;
22826;SDS011;11580;52.562;13.418;2024-03-29T14:14:51;1.67;;;1.37;;
22826;SDS011;11580;52.562;13.418;2024-03-29T14:17:18;1.10;;;1.00;;
22826;SDS011;11580;52.562;13.418;2024-03-29T14:19:47;1.40;;;1.30;;
22826;SDS011;11580;52.562;13.418;2024-03-29T14:22:15;2.27;;;1.40;;
22826;SDS011;11580;52.562;13.418;2024-03-29T14:24:45;1.50;;;1.23;;
22826;SDS011;11580;52.562;13.418;2024-03-29T14:27:12;1.43;;;1.33;;
22826;SDS011;11580;52.562;13.418;2024-03-29T14:29:39;1.20;;;1.10;;
22826;SDS011;11580;52.562;13.418;2024-03-29T14:32:09;1.13;;;1.03;;
22826;SDS011;11580;52.562;13.418;2024-03-29T14:34:37;1.43;;;0.90;;
22826;SDS011;11580;52.562;13.418;2024-03-29T14:37:09;1.00;;;1.00;;
22826;SDS011;11580;52.562;13.418;2024-03-29T14:39:38;1.40;;;1.00;;
22826;SDS011;11580;52.562;13.418;2024-03-29T14:42:08;1.50;;;1.30;;